sensor_id;sensor_type;location;lat;lon;timestamp;P1;durP1;ratioP1;P2;durP2;ratioP2
30571;SDS011;17348;50.948;10.696;2024-02-26T00:00:04;10.80;;;5.27;;
30571;SDS011;17348;50.948;10.696;2024-02-26T00:03:09;15.53;;;5.70;;
30571;SDS011;17348;50.948;10.696;2024-02-26T00:06:11;9.63;;;5.20;;
30571;SDS011;17348;50.948;10.696;2024-02-26T00:09:14;12.77;;;5.30;;
30571;SDS011;17348;50.948;10.696;2024-02-26T00:12:16;17.03;;;5.33;;
30571;SDS011;17348;50.948;10.696;2024-02-26T00:15:20;12.03;;;5.10;;
30571;SDS011;17348;50.948;10.696;2024-02-26T00:18:22;12.43;;;6.03;;
30571;SDS011;17348;50.948;10.696;2024-02-26T00:21:24;11.30;;;5.57;;
30571;SDS011;17348;50.948;10.696;2024-02-26T00:24:27;13.03;;;5.70;;
30571;SDS011;17348;50.948;10.696;2024-02-26T00:27:29;12.57;;;5.07;;
30571;SDS011;17348;50.948;10.696;2024-02-26T00:30:33;9.23;;;5.20;;
30571;SDS011;17348;50.948;10.696;2024-02-26T00:33:35;12.37;;;5.20;;
30571;SDS011;17348;50.948;10.696;2024-02-26T00:36:37;13.73;;;5.83;;
30571;SDS011;17348;50.948;10.696;2024-02-26T00:39:39;16.80;;;5.70;;
30571;SDS011;17348;50.948;10.696;2024-02-26T00:42:43;9.70;;;4.63;;
30571;SDS011;17348;50.948;10.696;2024-02-26T00:45:47;9.37;;;4.50;;
30571;SDS011;17348;50.948;10.696;2024-02-26T00:48:50;13.77;;;6.00;;
30571;SDS011;17348;50.948;10.696;2024-02-26T00:51:52;12.70;;;5.47;;
30571;SDS011;17348;50.948;10.696;2024-02-26T00:54:54;16.50;;;5.70;;
30571;SDS011;17348;50.948;10.696;2024-02-26T00:57:57;15.97;;;5.70;;
30571;SDS011;17348;50.948;10.696;2024-02-26T01:01:00;14.90;;;5.77;;
30571;SDS011;17348;50.948;10.696;2024-02-26T01:04:03;14.03;;;5.73;;
30571;SDS011;17348;50.948;10.696;2024-02-26T01:07:05;11.53;;;5.67;;
30571;SDS011;17348;50.948;10.696;2024-02-26T01:10:08;10.80;;;5.53;;
30571;SDS011;17348;50.948;10.696;2024-02-26T01:13:10;8.57;;;4.63;;
30571;SDS011;17348;50.948;10.696;2024-02-26T01:16:14;11.73;;;5.67;;
30571;SDS011;17348;50.948;10.696;2024-02-26T01:19:16;12.70;;;5.37;;
30571;SDS011;17348;50.948;10.696;2024-02-26T01:22:19;10.73;;;4.27;;
30571;SDS011;17348;50.948;10.696;2024-02-26T01:25:21;15.27;;;5.57;;
30571;SDS011;17348;50.948;10.696;2024-02-26T01:28:24;10.57;;;4.77;;
30571;SDS011;17348;50.948;10.696;2024-02-26T01:31:27;12.13;;;4.47;;
30571;SDS011;17348;50.948;10.696;2024-02-26T01:34:30;9.53;;;4.47;;
30571;SDS011;17348;50.948;10.696;2024-02-26T01:37:32;11.50;;;4.30;;
30571;SDS011;17348;50.948;10.696;2024-02-26T01:40:34;15.20;;;4.93;;
30571;SDS011;17348;50.948;10.696;2024-02-26T01:43:37;9.33;;;4.40;;
30571;SDS011;17348;50.948;10.696;2024-02-26T01:46:40;8.37;;;4.00;;
30571;SDS011;17348;50.948;10.696;2024-02-26T01:49:43;8.57;;;3.57;;
30571;SDS011;17348;50.948;10.696;2024-02-26T01:52:45;11.07;;;4.53;;
30571;SDS011;17348;50.948;10.696;2024-02-26T01:55:49;7.97;;;3.97;;
30571;SDS011;17348;50.948;10.696;2024-02-26T01:58:51;9.53;;;3.73;;
30571;SDS011;17348;50.948;10.696;2024-02-26T02:01:57;8.13;;;3.40;;
30571;SDS011;17348;50.948;10.696;2024-02-26T02:05:00;9.40;;;3.93;;
30571;SDS011;17348;50.948;10.696;2024-02-26T02:08:03;11.23;;;3.70;;
30571;SDS011;17348;50.948;10.696;2024-02-26T02:11:06;8.87;;;3.90;;
30571;SDS011;17348;50.948;10.696;2024-02-26T02:14:08;8.07;;;3.30;;
30571;SDS011;17348;50.948;10.696;2024-02-26T02:17:12;6.70;;;3.43;;
30571;SDS011;17348;50.948;10.696;2024-02-26T02:20:15;8.83;;;3.27;;
30571;SDS011;17348;50.948;10.696;2024-02-26T02:23:19;8.57;;;3.77;;
30571;SDS011;17348;50.948;10.696;2024-02-26T02:26:22;7.90;;;3.80;;
30571;SDS011;17348;50.948;10.696;2024-02-26T02:29:24;7.07;;;3.53;;
30571;SDS011;17348;50.948;10.696;2024-02-26T02:32:29;9.13;;;4.23;;
30571;SDS011;17348;50.948;10.696;2024-02-26T02:35:31;7.43;;;4.03;;
30571;SDS011;17348;50.948;10.696;2024-02-26T02:38:35;7.20;;;3.60;;
30571;SDS011;17348;50.948;10.696;2024-02-26T02:41:37;5.77;;;3.17;;
30571;SDS011;17348;50.948;10.696;2024-02-26T02:44:40;7.67;;;3.17;;
30571;SDS011;17348;50.948;10.696;2024-02-26T02:47:42;7.30;;;3.37;;
30571;SDS011;17348;50.948;10.696;2024-02-26T02:50:44;6.97;;;3.17;;
30571;SDS011;17348;50.948;10.696;2024-02-26T02:53:48;9.30;;;3.17;;
30571;SDS011;17348;50.948;10.696;2024-02-26T02:56:51;4.77;;;3.03;;
30571;SDS011;17348;50.948;10.696;2024-02-26T02:59:53;7.07;;;3.20;;
30571;SDS011;17348;50.948;10.696;2024-02-26T03:02:55;7.57;;;3.17;;
30571;SDS011;17348;50.948;10.696;2024-02-26T03:05:57;5.43;;;3.03;;
30571;SDS011;17348;50.948;10.696;2024-02-26T03:09:01;6.73;;;2.93;;
30571;SDS011;17348;50.948;10.696;2024-02-26T03:12:03;7.13;;;3.63;;
30571;SDS011;17348;50.948;10.696;2024-02-26T03:15:06;7.03;;;3.20;;
30571;SDS011;17348;50.948;10.696;2024-02-26T03:18:09;7.57;;;3.40;;
30571;SDS011;17348;50.948;10.696;2024-02-26T03:21:11;4.60;;;2.90;;
30571;SDS011;17348;50.948;10.696;2024-02-26T03:24:15;6.33;;;2.97;;
30571;SDS011;17348;50.948;10.696;2024-02-26T03:27:17;5.30;;;2.97;;
30571;SDS011;17348;50.948;10.696;2024-02-26T03:30:19;7.47;;;3.53;;
30571;SDS011;17348;50.948;10.696;2024-02-26T03:33:22;6.70;;;3.43;;
30571;SDS011;17348;50.948;10.696;2024-02-26T03:36:24;7.47;;;3.47;;
30571;SDS011;17348;50.948;10.696;2024-02-26T03:39:27;8.30;;;3.27;;
30571;SDS011;17348;50.948;10.696;2024-02-26T03:42:30;8.10;;;3.33;;
30571;SDS011;17348;50.948;10.696;2024-02-26T03:45:32;6.73;;;3.97;;
30571;SDS011;17348;50.948;10.696;2024-02-26T03:48:34;5.73;;;3.27;;
30571;SDS011;17348;50.948;10.696;2024-02-26T03:51:37;7.57;;;3.77;;
30571;SDS011;17348;50.948;10.696;2024-02-26T03:54:40;8.37;;;3.90;;
30571;SDS011;17348;50.948;10.696;2024-02-26T03:57:42;10.57;;;4.07;;
30571;SDS011;17348;50.948;10.696;2024-02-26T04:00:45;8.50;;;3.50;;
30571;SDS011;17348;50.948;10.696;2024-02-26T04:03:48;9.90;;;4.00;;
30571;SDS011;17348;50.948;10.696;2024-02-26T04:06:50;9.13;;;4.40;;
30571;SDS011;17348;50.948;10.696;2024-02-26T04:09:54;7.73;;;3.53;;
30571;SDS011;17348;50.948;10.696;2024-02-26T04:12:56;13.33;;;4.90;;
30571;SDS011;17348;50.948;10.696;2024-02-26T04:15:59;9.57;;;4.63;;
30571;SDS011;17348;50.948;10.696;2024-02-26T04:19:01;10.73;;;5.37;;
30571;SDS011;17348;50.948;10.696;2024-02-26T04:22:04;9.97;;;4.50;;
30571;SDS011;17348;50.948;10.696;2024-02-26T04:25:08;9.57;;;4.97;;
30571;SDS011;17348;50.948;10.696;2024-02-26T04:28:10;13.70;;;5.27;;
30571;SDS011;17348;50.948;10.696;2024-02-26T04:31:13;10.33;;;5.00;;
30571;SDS011;17348;50.948;10.696;2024-02-26T04:34:15;9.53;;;4.97;;
30571;SDS011;17348;50.948;10.696;2024-02-26T04:37:17;8.40;;;4.67;;
30571;SDS011;17348;50.948;10.696;2024-02-26T04:40:21;11.33;;;5.50;;
30571;SDS011;17348;50.948;10.696;2024-02-26T04:43:24;10.33;;;5.10;;
30571;SDS011;17348;50.948;10.696;2024-02-26T04:46:26;11.60;;;5.30;;
30571;SDS011;17348;50.948;10.696;2024-02-26T04:49:28;13.23;;;5.40;;
30571;SDS011;17348;50.948;10.696;2024-02-26T04:52:31;11.03;;;4.60;;
30571;SDS011;17348;50.948;10.696;2024-02-26T04:55:34;8.57;;;4.63;;
30571;SDS011;17348;50.948;10.696;2024-02-26T04:58:37;10.17;;;5.23;;
30571;SDS011;17348;50.948;10.696;2024-02-26T05:01:39;10.37;;;5.00;;
30571;SDS011;17348;50.948;10.696;2024-02-26T05:04:42;10.80;;;5.23;;
30571;SDS011;17348;50.948;10.696;2024-02-26T05:07:44;8.80;;;4.30;;
30571;SDS011;17348;50.948;10.696;2024-02-26T05:10:48;10.33;;;5.17;;
30571;SDS011;17348;50.948;10.696;2024-02-26T05:13:50;9.67;;;4.80;;
30571;SDS011;17348;50.948;10.696;2024-02-26T05:16:52;8.87;;;5.07;;
30571;SDS011;17348;50.948;10.696;2024-02-26T05:19:54;11.63;;;4.97;;
30571;SDS011;17348;50.948;10.696;2024-02-26T05:22:57;7.63;;;4.50;;
30571;SDS011;17348;50.948;10.696;2024-02-26T05:26:01;9.33;;;4.53;;
30571;SDS011;17348;50.948;10.696;2024-02-26T05:29:04;9.77;;;5.10;;
30571;SDS011;17348;50.948;10.696;2024-02-26T05:32:06;8.77;;;4.07;;
30571;SDS011;17348;50.948;10.696;2024-02-26T05:35:08;7.87;;;4.23;;
30571;SDS011;17348;50.948;10.696;2024-02-26T05:38:11;8.23;;;4.77;;
30571;SDS011;17348;50.948;10.696;2024-02-26T05:41:15;7.73;;;4.57;;
30571;SDS011;17348;50.948;10.696;2024-02-26T05:44:22;11.50;;;5.05;;
30571;SDS011;17348;50.948;10.696;2024-02-26T05:47:24;8.20;;;4.20;;
30571;SDS011;17348;50.948;10.696;2024-02-26T05:50:26;9.93;;;4.50;;
30571;SDS011;17348;50.948;10.696;2024-02-26T05:53:29;8.03;;;4.90;;
30571;SDS011;17348;50.948;10.696;2024-02-26T05:56:32;13.83;;;5.47;;
30571;SDS011;17348;50.948;10.696;2024-02-26T05:59:35;12.30;;;5.33;;
30571;SDS011;17348;50.948;10.696;2024-02-26T06:02:37;8.87;;;4.30;;
30571;SDS011;17348;50.948;10.696;2024-02-26T06:05:40;9.90;;;5.33;;
30571;SDS011;17348;50.948;10.696;2024-02-26T06:08:42;9.93;;;5.23;;
30571;SDS011;17348;50.948;10.696;2024-02-26T06:11:46;12.60;;;5.47;;
30571;SDS011;17348;50.948;10.696;2024-02-26T06:14:48;13.47;;;5.03;;
30571;SDS011;17348;50.948;10.696;2024-02-26T06:17:51;15.33;;;5.30;;
30571;SDS011;17348;50.948;10.696;2024-02-26T06:20:53;8.90;;;4.67;;
30571;SDS011;17348;50.948;10.696;2024-02-26T06:23:55;8.90;;;5.13;;
30571;SDS011;17348;50.948;10.696;2024-02-26T06:27:00;9.90;;;5.07;;
30571;SDS011;17348;50.948;10.696;2024-02-26T06:30:03;8.37;;;4.90;;
30571;SDS011;17348;50.948;10.696;2024-02-26T06:33:06;10.83;;;4.67;;
30571;SDS011;17348;50.948;10.696;2024-02-26T06:36:09;11.20;;;5.20;;
30571;SDS011;17348;50.948;10.696;2024-02-26T06:39:11;16.37;;;5.67;;
30571;SDS011;17348;50.948;10.696;2024-02-26T06:42:15;11.60;;;5.67;;
30571;SDS011;17348;50.948;10.696;2024-02-26T06:45:17;13.77;;;6.17;;
30571;SDS011;17348;50.948;10.696;2024-02-26T06:48:20;12.93;;;5.50;;
30571;SDS011;17348;50.948;10.696;2024-02-26T06:51:22;18.37;;;6.57;;
30571;SDS011;17348;50.948;10.696;2024-02-26T06:54:24;13.30;;;5.87;;
30571;SDS011;17348;50.948;10.696;2024-02-26T06:57:28;10.67;;;5.17;;
30571;SDS011;17348;50.948;10.696;2024-02-26T07:00:30;14.60;;;5.93;;
30571;SDS011;17348;50.948;10.696;2024-02-26T07:03:32;8.50;;;5.23;;
30571;SDS011;17348;50.948;10.696;2024-02-26T07:06:35;14.80;;;5.97;;
30571;SDS011;17348;50.948;10.696;2024-02-26T07:09:37;12.13;;;5.43;;
30571;SDS011;17348;50.948;10.696;2024-02-26T07:12:41;8.10;;;4.47;;
30571;SDS011;17348;50.948;10.696;2024-02-26T07:15:43;10.03;;;4.80;;
30571;SDS011;17348;50.948;10.696;2024-02-26T07:18:45;22.37;;;8.03;;
30571;SDS011;17348;50.948;10.696;2024-02-26T07:21:47;41.33;;;16.53;;
30571;SDS011;17348;50.948;10.696;2024-02-26T07:24:50;20.73;;;9.40;;
30571;SDS011;17348;50.948;10.696;2024-02-26T07:27:53;20.77;;;8.37;;
30571;SDS011;17348;50.948;10.696;2024-02-26T07:30:56;18.53;;;6.50;;
30571;SDS011;17348;50.948;10.696;2024-02-26T07:33:58;14.53;;;5.83;;
30571;SDS011;17348;50.948;10.696;2024-02-26T07:37:01;14.97;;;6.63;;
30571;SDS011;17348;50.948;10.696;2024-02-26T07:40:04;14.03;;;6.37;;
30571;SDS011;17348;50.948;10.696;2024-02-26T07:43:10;9.90;;;6.23;;
30571;SDS011;17348;50.948;10.696;2024-02-26T07:46:12;15.20;;;7.90;;
30571;SDS011;17348;50.948;10.696;2024-02-26T07:49:14;14.57;;;7.27;;
30571;SDS011;17348;50.948;10.696;2024-02-26T07:52:17;15.93;;;6.57;;
30571;SDS011;17348;50.948;10.696;2024-02-26T07:55:19;12.47;;;6.13;;
30571;SDS011;17348;50.948;10.696;2024-02-26T07:58:24;13.93;;;6.73;;
30571;SDS011;17348;50.948;10.696;2024-02-26T08:01:26;16.07;;;7.40;;
30571;SDS011;17348;50.948;10.696;2024-02-26T08:04:28;11.00;;;5.43;;
30571;SDS011;17348;50.948;10.696;2024-02-26T08:07:31;12.07;;;6.70;;
30571;SDS011;17348;50.948;10.696;2024-02-26T08:10:33;12.73;;;6.53;;
30571;SDS011;17348;50.948;10.696;2024-02-26T08:13:37;10.93;;;5.90;;
30571;SDS011;17348;50.948;10.696;2024-02-26T08:16:39;15.83;;;7.73;;
30571;SDS011;17348;50.948;10.696;2024-02-26T08:19:41;14.33;;;6.97;;
30571;SDS011;17348;50.948;10.696;2024-02-26T08:22:44;13.83;;;7.07;;
30571;SDS011;17348;50.948;10.696;2024-02-26T08:25:46;17.43;;;7.03;;
30571;SDS011;17348;50.948;10.696;2024-02-26T08:28:50;14.47;;;6.90;;
30571;SDS011;17348;50.948;10.696;2024-02-26T08:31:52;14.70;;;7.47;;
30571;SDS011;17348;50.948;10.696;2024-02-26T08:34:55;20.53;;;8.17;;
30571;SDS011;17348;50.948;10.696;2024-02-26T08:37:57;18.03;;;7.30;;
30571;SDS011;17348;50.948;10.696;2024-02-26T08:40:59;22.37;;;9.53;;
30571;SDS011;17348;50.948;10.696;2024-02-26T08:44:03;25.87;;;9.23;;
30571;SDS011;17348;50.948;10.696;2024-02-26T08:47:06;21.53;;;10.27;;
30571;SDS011;17348;50.948;10.696;2024-02-26T08:50:08;28.23;;;11.00;;
30571;SDS011;17348;50.948;10.696;2024-02-26T08:53:12;25.70;;;12.83;;
30571;SDS011;17348;50.948;10.696;2024-02-26T08:56:15;29.47;;;12.47;;
30571;SDS011;17348;50.948;10.696;2024-02-26T08:59:22;31.43;;;13.17;;
30571;SDS011;17348;50.948;10.696;2024-02-26T09:02:24;38.07;;;13.87;;
30571;SDS011;17348;50.948;10.696;2024-02-26T09:05:27;29.43;;;12.77;;
30571;SDS011;17348;50.948;10.696;2024-02-26T09:08:29;30.67;;;12.87;;
30571;SDS011;17348;50.948;10.696;2024-02-26T09:11:31;29.07;;;13.27;;
30571;SDS011;17348;50.948;10.696;2024-02-26T09:14:35;26.53;;;12.60;;
30571;SDS011;17348;50.948;10.696;2024-02-26T09:17:37;30.70;;;13.47;;
30571;SDS011;17348;50.948;10.696;2024-02-26T09:20:40;27.27;;;12.27;;
30571;SDS011;17348;50.948;10.696;2024-02-26T09:23:42;26.17;;;12.30;;
30571;SDS011;17348;50.948;10.696;2024-02-26T09:26:45;31.30;;;13.43;;
30571;SDS011;17348;50.948;10.696;2024-02-26T09:29:48;31.37;;;13.90;;
30571;SDS011;17348;50.948;10.696;2024-02-26T09:32:51;36.57;;;16.13;;
30571;SDS011;17348;50.948;10.696;2024-02-26T09:35:53;44.37;;;17.97;;
30571;SDS011;17348;50.948;10.696;2024-02-26T09:38:55;42.53;;;17.47;;
30571;SDS011;17348;50.948;10.696;2024-02-26T09:41:58;45.40;;;18.03;;
30571;SDS011;17348;50.948;10.696;2024-02-26T09:45:06;40.27;;;18.53;;
30571;SDS011;17348;50.948;10.696;2024-02-26T09:48:12;45.53;;;18.40;;
30571;SDS011;17348;50.948;10.696;2024-02-26T09:51:17;44.90;;;19.40;;
30571;SDS011;17348;50.948;10.696;2024-02-26T09:54:22;54.93;;;22.17;;
30571;SDS011;17348;50.948;10.696;2024-02-26T09:57:27;50.27;;;22.47;;
30571;SDS011;17348;50.948;10.696;2024-02-26T10:00:31;51.83;;;23.10;;
30571;SDS011;17348;50.948;10.696;2024-02-26T10:03:35;53.90;;;22.80;;
30571;SDS011;17348;50.948;10.696;2024-02-26T10:06:41;51.87;;;23.43;;
30571;SDS011;17348;50.948;10.696;2024-02-26T10:09:45;52.37;;;22.60;;
30571;SDS011;17348;50.948;10.696;2024-02-26T10:12:47;61.93;;;25.10;;
30571;SDS011;17348;50.948;10.696;2024-02-26T10:15:51;50.43;;;23.67;;
30571;SDS011;17348;50.948;10.696;2024-02-26T10:18:54;47.60;;;21.73;;
30571;SDS011;17348;50.948;10.696;2024-02-26T10:21:56;56.00;;;23.20;;
30571;SDS011;17348;50.948;10.696;2024-02-26T10:24:59;48.90;;;22.83;;
30571;SDS011;17348;50.948;10.696;2024-02-26T10:28:02;50.63;;;21.70;;
30571;SDS011;17348;50.948;10.696;2024-02-26T10:31:06;52.50;;;22.53;;
30571;SDS011;17348;50.948;10.696;2024-02-26T10:34:08;56.20;;;22.70;;
30571;SDS011;17348;50.948;10.696;2024-02-26T10:37:11;54.70;;;23.30;;
30571;SDS011;17348;50.948;10.696;2024-02-26T10:40:14;52.80;;;21.97;;
30571;SDS011;17348;50.948;10.696;2024-02-26T10:43:17;45.27;;;19.03;;
30571;SDS011;17348;50.948;10.696;2024-02-26T10:46:21;40.73;;;18.73;;
30571;SDS011;17348;50.948;10.696;2024-02-26T10:49:23;39.30;;;17.73;;
30571;SDS011;17348;50.948;10.696;2024-02-26T10:52:30;35.60;;;16.47;;
30571;SDS011;17348;50.948;10.696;2024-02-26T10:55:34;37.30;;;17.30;;
30571;SDS011;17348;50.948;10.696;2024-02-26T10:58:38;41.57;;;18.13;;
30571;SDS011;17348;50.948;10.696;2024-02-26T11:01:42;39.93;;;18.17;;
30571;SDS011;17348;50.948;10.696;2024-02-26T11:04:47;34.73;;;16.07;;
30571;SDS011;17348;50.948;10.696;2024-02-26T11:07:50;45.77;;;18.87;;
30571;SDS011;17348;50.948;10.696;2024-02-26T11:10:54;46.67;;;18.60;;
30571;SDS011;17348;50.948;10.696;2024-02-26T11:13:58;39.77;;;18.10;;
30571;SDS011;17348;50.948;10.696;2024-02-26T11:17:03;42.90;;;18.47;;
30571;SDS011;17348;50.948;10.696;2024-02-26T11:20:08;36.17;;;16.60;;
30571;SDS011;17348;50.948;10.696;2024-02-26T11:23:13;53.83;;;20.77;;
30571;SDS011;17348;50.948;10.696;2024-02-26T11:26:16;43.30;;;18.07;;
30571;SDS011;17348;50.948;10.696;2024-02-26T11:29:21;42.30;;;17.87;;
30571;SDS011;17348;50.948;10.696;2024-02-26T11:32:25;39.73;;;17.50;;
30571;SDS011;17348;50.948;10.696;2024-02-26T11:35:28;39.07;;;18.37;;
30571;SDS011;17348;50.948;10.696;2024-02-26T11:38:30;37.63;;;17.60;;
30571;SDS011;17348;50.948;10.696;2024-02-26T11:41:36;47.17;;;20.00;;
30571;SDS011;17348;50.948;10.696;2024-02-26T11:44:38;37.77;;;18.67;;
30571;SDS011;17348;50.948;10.696;2024-02-26T11:47:44;41.03;;;18.10;;
30571;SDS011;17348;50.948;10.696;2024-02-26T11:50:58;40.30;;;19.57;;
30571;SDS011;17348;50.948;10.696;2024-02-26T11:54:00;41.50;;;18.77;;
30571;SDS011;17348;50.948;10.696;2024-02-26T11:57:03;34.30;;;17.23;;
30571;SDS011;17348;50.948;10.696;2024-02-26T12:00:12;47.27;;;20.53;;
30571;SDS011;17348;50.948;10.696;2024-02-26T12:03:16;43.83;;;20.03;;
30571;SDS011;17348;50.948;10.696;2024-02-26T12:06:18;45.37;;;20.17;;
30571;SDS011;17348;50.948;10.696;2024-02-26T12:12:42;43.10;;;18.90;;
30571;SDS011;17348;50.948;10.696;2024-02-26T12:15:45;44.40;;;21.30;;
30571;SDS011;17348;50.948;10.696;2024-02-26T12:18:59;45.40;;;21.60;;
30571;SDS011;17348;50.948;10.696;2024-02-26T12:22:02;46.60;;;20.83;;
30571;SDS011;17348;50.948;10.696;2024-02-26T12:25:05;40.50;;;20.60;;
30571;SDS011;17348;50.948;10.696;2024-02-26T12:28:10;43.40;;;20.07;;
30571;SDS011;17348;50.948;10.696;2024-02-26T12:31:12;43.07;;;18.33;;
30571;SDS011;17348;50.948;10.696;2024-02-26T12:34:17;39.53;;;18.17;;
30571;SDS011;17348;50.948;10.696;2024-02-26T12:37:20;42.10;;;18.47;;
30571;SDS011;17348;50.948;10.696;2024-02-26T12:40:22;34.33;;;16.03;;
30571;SDS011;17348;50.948;10.696;2024-02-26T12:43:25;41.30;;;17.53;;
30571;SDS011;17348;50.948;10.696;2024-02-26T12:46:28;38.37;;;17.33;;
30571;SDS011;17348;50.948;10.696;2024-02-26T12:49:32;42.60;;;17.13;;
30571;SDS011;17348;50.948;10.696;2024-02-26T12:52:34;41.70;;;18.53;;
30571;SDS011;17348;50.948;10.696;2024-02-26T12:55:38;33.63;;;16.70;;
30571;SDS011;17348;50.948;10.696;2024-02-26T12:58:41;33.63;;;16.43;;
30571;SDS011;17348;50.948;10.696;2024-02-26T13:01:44;36.03;;;17.10;;
30571;SDS011;17348;50.948;10.696;2024-02-26T13:04:49;33.53;;;16.43;;
30571;SDS011;17348;50.948;10.696;2024-02-26T13:07:51;30.83;;;16.23;;
30571;SDS011;17348;50.948;10.696;2024-02-26T13:10:54;36.97;;;16.57;;
30571;SDS011;17348;50.948;10.696;2024-02-26T13:13:56;34.40;;;16.73;;
30571;SDS011;17348;50.948;10.696;2024-02-26T13:16:59;35.60;;;17.53;;
30571;SDS011;17348;50.948;10.696;2024-02-26T13:20:04;36.17;;;16.67;;
30571;SDS011;17348;50.948;10.696;2024-02-26T13:23:10;34.70;;;17.77;;
30571;SDS011;17348;50.948;10.696;2024-02-26T13:26:13;37.00;;;18.10;;
30571;SDS011;17348;50.948;10.696;2024-02-26T13:29:16;35.67;;;18.47;;
30571;SDS011;17348;50.948;10.696;2024-02-26T13:32:20;39.57;;;18.67;;
30571;SDS011;17348;50.948;10.696;2024-02-26T13:35:24;38.33;;;17.93;;
30571;SDS011;17348;50.948;10.696;2024-02-26T13:38:27;36.90;;;18.20;;
30571;SDS011;17348;50.948;10.696;2024-02-26T13:41:29;49.60;;;19.77;;
30571;SDS011;17348;50.948;10.696;2024-02-26T13:44:32;42.07;;;20.03;;
30571;SDS011;17348;50.948;10.696;2024-02-26T13:47:39;33.37;;;16.50;;
30571;SDS011;17348;50.948;10.696;2024-02-26T13:50:43;38.80;;;18.97;;
30571;SDS011;17348;50.948;10.696;2024-02-26T13:53:46;40.97;;;20.23;;
30571;SDS011;17348;50.948;10.696;2024-02-26T13:56:48;37.70;;;18.37;;
30571;SDS011;17348;50.948;10.696;2024-02-26T13:59:52;49.83;;;18.93;;
30571;SDS011;17348;50.948;10.696;2024-02-26T14:02:55;44.47;;;20.03;;
30571;SDS011;17348;50.948;10.696;2024-02-26T14:05:58;46.60;;;19.57;;
30571;SDS011;17348;50.948;10.696;2024-02-26T14:09:01;39.10;;;18.30;;
30571;SDS011;17348;50.948;10.696;2024-02-26T14:12:04;35.17;;;18.10;;
30571;SDS011;17348;50.948;10.696;2024-02-26T14:15:07;47.43;;;19.50;;
30571;SDS011;17348;50.948;10.696;2024-02-26T14:18:11;40.10;;;19.67;;
30571;SDS011;17348;50.948;10.696;2024-02-26T14:21:15;39.40;;;18.60;;
30571;SDS011;17348;50.948;10.696;2024-02-26T14:24:18;44.17;;;19.37;;
30571;SDS011;17348;50.948;10.696;2024-02-26T14:27:20;41.10;;;20.13;;
30571;SDS011;17348;50.948;10.696;2024-02-26T14:30:22;41.23;;;18.83;;
30571;SDS011;17348;50.948;10.696;2024-02-26T14:33:25;41.37;;;18.17;;
30571;SDS011;17348;50.948;10.696;2024-02-26T14:36:28;35.20;;;16.53;;
30571;SDS011;17348;50.948;10.696;2024-02-26T14:39:31;39.17;;;17.80;;
30571;SDS011;17348;50.948;10.696;2024-02-26T14:42:33;40.58;;;18.27;;
30571;SDS011;17348;50.948;10.696;2024-02-26T14:45:36;35.43;;;16.87;;
30571;SDS011;17348;50.948;10.696;2024-02-26T14:48:38;32.80;;;16.15;;
30571;SDS011;17348;50.948;10.696;2024-02-26T14:51:42;37.10;;;17.55;;
30571;SDS011;17348;50.948;10.696;2024-02-26T14:54:45;42.30;;;17.88;;
30571;SDS011;17348;50.948;10.696;2024-02-26T14:57:47;42.17;;;18.67;;
30571;SDS011;17348;50.948;10.696;2024-02-26T15:00:50;43.63;;;18.10;;
30571;SDS011;17348;50.948;10.696;2024-02-26T15:03:53;38.20;;;17.07;;
30571;SDS011;17348;50.948;10.696;2024-02-26T15:06:57;41.13;;;17.83;;
30571;SDS011;17348;50.948;10.696;2024-02-26T15:09:59;37.45;;;17.33;;
30571;SDS011;17348;50.948;10.696;2024-02-26T15:13:02;38.55;;;17.02;;
30571;SDS011;17348;50.948;10.696;2024-02-26T15:16:05;31.23;;;14.73;;
30571;SDS011;17348;50.948;10.696;2024-02-26T15:19:07;36.70;;;15.97;;
30571;SDS011;17348;50.948;10.696;2024-02-26T15:22:11;37.20;;;14.75;;
30571;SDS011;17348;50.948;10.696;2024-02-26T15:25:14;33.60;;;13.90;;
30571;SDS011;17348;50.948;10.696;2024-02-26T15:28:17;27.75;;;14.93;;
30571;SDS011;17348;50.948;10.696;2024-02-26T15:31:19;33.90;;;15.43;;
30571;SDS011;17348;50.948;10.696;2024-02-26T15:34:21;36.30;;;14.07;;
30571;SDS011;17348;50.948;10.696;2024-02-26T15:37:25;28.27;;;14.43;;
30571;SDS011;17348;50.948;10.696;2024-02-26T15:40:29;32.43;;;15.27;;
30571;SDS011;17348;50.948;10.696;2024-02-26T15:43:31;34.30;;;16.60;;
30571;SDS011;17348;50.948;10.696;2024-02-26T15:46:35;33.73;;;14.60;;
30571;SDS011;17348;50.948;10.696;2024-02-26T15:49:40;28.67;;;15.63;;
30571;SDS011;17348;50.948;10.696;2024-02-26T15:52:44;33.73;;;14.83;;
30571;SDS011;17348;50.948;10.696;2024-02-26T15:55:46;36.60;;;15.70;;
30571;SDS011;17348;50.948;10.696;2024-02-26T15:58:49;40.83;;;14.80;;
30571;SDS011;17348;50.948;10.696;2024-02-26T16:01:54;31.00;;;14.77;;
30571;SDS011;17348;50.948;10.696;2024-02-26T16:04:57;30.20;;;14.47;;
30571;SDS011;17348;50.948;10.696;2024-02-26T16:08:01;27.87;;;12.87;;
30571;SDS011;17348;50.948;10.696;2024-02-26T16:11:07;23.60;;;13.13;;
30571;SDS011;17348;50.948;10.696;2024-02-26T16:14:12;31.30;;;14.00;;
30571;SDS011;17348;50.948;10.696;2024-02-26T16:17:23;26.57;;;13.13;;
30571;SDS011;17348;50.948;10.696;2024-02-26T16:20:27;25.90;;;13.20;;
30571;SDS011;17348;50.948;10.696;2024-02-26T16:23:31;26.38;;;12.50;;
30571;SDS011;17348;50.948;10.696;2024-02-26T16:26:34;23.43;;;12.10;;
30571;SDS011;17348;50.948;10.696;2024-02-26T16:29:36;28.30;;;12.00;;
30571;SDS011;17348;50.948;10.696;2024-02-26T16:32:40;22.58;;;11.23;;
30571;SDS011;17348;50.948;10.696;2024-02-26T16:35:43;25.25;;;12.32;;
30571;SDS011;17348;50.948;10.696;2024-02-26T16:38:47;19.77;;;11.70;;
30571;SDS011;17348;50.948;10.696;2024-02-26T16:41:49;29.83;;;12.82;;
30571;SDS011;17348;50.948;10.696;2024-02-26T16:44:52;23.53;;;12.47;;
30571;SDS011;17348;50.948;10.696;2024-02-26T16:47:56;24.83;;;11.53;;
30571;SDS011;17348;50.948;10.696;2024-02-26T16:50:58;23.63;;;11.77;;
30571;SDS011;17348;50.948;10.696;2024-02-26T16:54:02;23.53;;;11.87;;
30571;SDS011;17348;50.948;10.696;2024-02-26T16:57:04;27.17;;;11.90;;
30571;SDS011;17348;50.948;10.696;2024-02-26T17:00:07;21.67;;;10.97;;
30571;SDS011;17348;50.948;10.696;2024-02-26T17:03:13;23.33;;;11.40;;
30571;SDS011;17348;50.948;10.696;2024-02-26T17:06:16;27.20;;;11.67;;
30571;SDS011;17348;50.948;10.696;2024-02-26T17:09:25;25.50;;;11.10;;
30571;SDS011;17348;50.948;10.696;2024-02-26T17:12:27;22.17;;;11.00;;
30571;SDS011;17348;50.948;10.696;2024-02-26T17:15:29;22.93;;;11.37;;
30571;SDS011;17348;50.948;10.696;2024-02-26T17:18:32;24.17;;;10.47;;
30571;SDS011;17348;50.948;10.696;2024-02-26T17:21:34;22.77;;;11.03;;
30571;SDS011;17348;50.948;10.696;2024-02-26T17:24:38;23.23;;;11.05;;
30571;SDS011;17348;50.948;10.696;2024-02-26T17:27:41;38.57;;;15.80;;
30571;SDS011;17348;50.948;10.696;2024-02-26T17:30:43;22.30;;;11.47;;
30571;SDS011;17348;50.948;10.696;2024-02-26T17:33:48;27.57;;;13.20;;
30571;SDS011;17348;50.948;10.696;2024-02-26T17:36:51;32.53;;;14.10;;
30571;SDS011;17348;50.948;10.696;2024-02-26T17:39:55;27.33;;;12.83;;
30571;SDS011;17348;50.948;10.696;2024-02-26T17:42:58;33.77;;;14.60;;
30571;SDS011;17348;50.948;10.696;2024-02-26T17:46:00;27.08;;;13.13;;
30571;SDS011;17348;50.948;10.696;2024-02-26T17:49:02;28.25;;;13.98;;